Latest Weather Observations for Green Cape

IDN60801

Issued at 3:05 pm EDT Thursday 23 October 2014 (issued every 30 minutes, with the page automatically refreshed every 10 minutes)

About weather observations | Map of weather stations | Latest weather observations for NSW | Other Formats
Station Details ID: 069137 Name: GREEN CAPE AWS Lat: -37.26 Lon: 150.05 Height: 19.4 m
Data from the previous 72 hours. | See also: Recent months at Green Cape
Date/Time
EDT
Temp
°C
App
Temp
°C
Dew
Point
Rel
Hum
%
Delta-T
°C
Wind Press
QNH
hPa
Press
MSL
hPa
Rain
since 9 am
mm
Dir
 
Spd
km/h
Gust
km/h
Spd
kts
Gust
kts
23/03:00pm 19.2 14.5 15.9 81 2.0 S 35 41 19 22 1017.6 1017.6 0.0
23/02:30pm 19.4 13.9 15.7 79 2.2 S 39 43 21 23 1017.4 1017.4 0.0
23/02:00pm 20.3 15.6 15.9 76 2.6 S 35 41 19 22 1017.7 1017.7 0.0
23/01:30pm 20.4 16.0 15.6 74 2.9 S 33 37 18 20 1017.6 1017.6 0.0
23/01:00pm 21.1 17.2 15.6 71 3.3 S 30 33 16 18 1017.7 1017.7 0.0
23/12:30pm 22.2 21.9 16.5 70 3.5 S 13 22 7 12 1017.9 1017.9 0.0
23/12:00pm 22.3 24.0 16.1 68 3.7 SSE 2 4 1 2 1018.2 1018.2 0.0
23/11:30am 22.7 25.0 16.7 69 3.7 CALM 0 2 0 1 1018.6 1018.6 0.0
23/11:00am 20.2 22.1 15.8 76 2.6 CALM 0 0 0 0 1018.7 1018.7 0.0
23/10:30am 19.5 21.1 15.0 75 2.6 CALM 0 0 0 0 1018.7 1018.7 0.0
23/10:00am 20.2 21.0 15.8 76 2.6 NNW 6 13 3 7 1018.5 1018.5 0.0
23/09:30am 19.2 18.9 15.5 79 2.2 N 11 20 6 11 1017.9 1017.9 0.0
23/09:00am 18.7 20.7 15.9 84 1.7 CALM 0 2 0 1 1017.3 1017.3 0.0
23/08:30am 17.8 19.5 15.1 84 1.6 CALM 0 0 0 0 1017.3 1017.3 0.0
23/08:00am 17.1 18.7 14.9 87 1.3 CALM 0 0 0 0 1017.7 1017.7 0.0
23/07:30am 16.2 17.7 14.6 90 0.9 CALM 0 0 0 0 1017.6 1017.6 0.0
23/07:00am 14.6 15.6 13.1 91 0.8 CALM 0 4 0 2 1017.7 1017.7 0.0
23/06:30am 14.6 15.6 13.1 91 0.8 CALM 0 0 0 0 1017.1 1017.1 0.0
23/06:00am 14.7 15.7 13.2 91 0.8 W 0 4 0 2 1017.1 1017.1 0.0
23/05:30am 14.9 16.0 13.4 91 0.8 CALM 0 0 0 0 1016.2 1016.2 0.0
23/05:00am 15.0 15.3 13.4 90 0.9 N 4 6 2 3 1016.1 1016.1 0.0
23/04:30am 15.1 14.2 13.6 91 0.8 WNW 11 17 6 9 1016.1 1016.1 0.0
23/04:00am 15.6 15.6 14.1 91 0.8 NNW 7 11 4 6 1016.0 1016.0 0.0
23/03:30am 15.4 14.2 14.1 92 0.7 N 13 19 7 10 1016.0 1016.0 0.0
23/03:00am 15.2 15.1 13.9 92 0.7 N 7 11 4 6 1016.4 1016.4 0.0
23/02:30am 15.1 15.0 13.8 92 0.7 N 7 9 4 5 1016.7 1016.7 0.0
23/02:00am 15.2 14.0 13.9 92 0.7 N 13 15 7 8 1017.0 1017.0 0.0
23/01:30am 15.3 15.2 14.0 92 0.7 N 7 13 4 7 1017.4 1017.4 0.0
23/01:00am 15.4 14.6 14.1 92 0.7 N 11 15 6 8 1017.7 1017.7 0.0
23/12:30am 15.7 12.2 14.4 92 0.7 N 26 28 14 15 1017.5 1017.5 0.0
23/12:00am 15.7 12.2 14.4 92 0.7 N 26 30 14 16 1017.7 1017.7 0.0
 
Date/Time
EDT
Temp
°C
App
Temp
°C
Dew
Point
Rel
Hum
%
Delta-T
°C
Wind Press
QNH
hPa
Press
MSL
hPa
Rain
since 9 am
mm
Dir
 
Spd
km/h
Gust
km/h
Spd
kts
Gust
kts
22/11:30pm 15.6 12.0 14.3 92 0.7 N 26 28 14 15 1017.9 1017.9 0.0
22/11:00pm 15.8 12.3 14.5 92 0.7 N 26 28 14 15 1017.9 1017.9 0.0
22/10:30pm 16.0 12.2 14.7 92 0.7 N 28 30 15 16 1018.3 1018.3 0.0
22/10:00pm 16.0 12.6 14.7 92 0.7 N 26 30 14 16 1018.6 1018.6 0.0
22/09:30pm 16.1 12.6 14.6 91 0.9 N 26 28 14 15 1018.7 1018.7 0.0
22/09:00pm 16.1 12.6 14.6 91 0.9 N 26 28 14 15 1018.7 1018.7 0.0
22/08:30pm 16.2 12.7 14.6 90 0.9 N 26 28 14 15 1018.5 1018.5 0.0
22/08:00pm 16.2 13.4 14.4 89 1.0 N 22 24 12 13 1018.3 1018.3 0.0
22/07:30pm 16.4 13.9 14.2 87 1.2 N 20 24 11 13 1018.5 1018.5 0.0
22/07:00pm 16.8 13.9 14.1 84 1.5 N 22 24 12 13 1018.4 1018.4 0.0
22/06:30pm 17.1 14.3 14.2 83 1.7 N 22 26 12 14 1018.3 1018.3 0.0
22/06:00pm 17.4 14.8 13.9 80 2.0 N 20 24 11 13 1018.5 1018.5 0.0
22/05:30pm 17.9 15.0 14.0 78 2.2 N 22 26 12 14 1018.6 1018.6 0.0
22/05:00pm 18.1 14.4 13.8 76 2.4 N 26 28 14 15 1018.6 1018.6 0.0
22/04:30pm 18.1 13.9 13.4 74 2.7 N 28 32 15 17 1018.6 1018.6 0.0
22/04:00pm 18.2 13.5 13.3 73 2.8 N 30 33 16 18 1018.9 1018.9 0.0
22/03:30pm 18.3 13.6 13.2 72 2.9 N 30 37 16 20 1019.1 1019.1 0.0
22/03:00pm 18.5 13.4 13.1 71 3.0 N 32 37 17 20 1019.5 1019.5 0.0
22/02:30pm 18.3 12.5 12.7 70 3.1 N 35 43 19 23 1019.8 1019.8 0.0
22/02:00pm 18.2 12.0 12.6 70 3.1 N 37 44 20 24 1020.1 1020.1 0.0
22/01:30pm 18.3 12.1 12.5 69 3.2 N 37 44 20 24 1020.3 1020.3 0.0
22/01:00pm 17.9 10.7 11.9 68 3.3 N 41 50 22 27 1020.7 1020.7 0.0
22/12:30pm 17.6 9.9 11.6 68 3.3 N 43 52 23 28 1021.0 1021.0 0.0
22/12:00pm 17.9 10.8 12.1 69 3.2 N 41 52 22 28 1021.6 1021.6 0.0
22/11:30am 17.4 9.4 11.2 67 3.4 N 44 54 24 29 1022.1 1022.1 0.0
22/11:00am 17.1 8.6 10.7 66 3.4 N 46 52 25 28 1022.6 1022.6 0.0
22/10:30am 17.1 9.0 10.9 67 3.3 N 44 54 24 29 1023.1 1023.1 0.0
22/10:00am 16.9 8.5 11.0 68 3.2 N 46 52 25 28 1023.3 1023.3 0.0
22/09:30am 16.8 9.3 10.9 68 3.2 N 41 50 22 27 1023.7 1023.7 0.0
22/09:00am 16.6 9.9 10.9 69 3.0 N 37 44 20 24 1023.8 1023.8 0.0
22/08:30am 16.1 8.9 10.4 69 3.0 N 39 44 21 24 1023.8 1023.8 0.0
22/08:00am 15.9 8.3 10.4 70 2.9 N 41 46 22 25 1023.8 1023.8 0.0
22/07:30am 15.8 7.7 10.8 72 2.7 N 44 54 24 29 1023.7 1023.7 0.0
22/07:00am 15.7 7.8 10.9 73 2.5 N 43 50 23 27 1023.9 1023.9 0.0
22/06:30am 15.3 7.8 10.7 74 2.4 N 41 54 22 29 1023.8 1023.8 0.0
22/06:00am 15.1 7.9 10.5 74 2.4 N 39 46 21 25 1024.0 1024.0 0.0
22/05:30am 15.0 7.3 10.2 73 2.5 N 41 46 22 25 1023.9 1023.9 0.0
22/05:00am 15.3 7.0 10.1 71 2.7 N 44 54 24 29 1023.9 1023.9 0.0
22/04:30am 15.3 7.3 10.3 72 2.6 N 43 52 23 28 1024.2 1024.2 0.0
22/04:00am 14.9 8.1 10.7 76 2.2 N 37 43 20 23 1024.7 1024.7 0.0
22/03:30am 14.8 8.4 10.6 76 2.2 N 35 41 19 22 1025.0 1025.0 0.0
22/03:00am 14.8 9.0 10.8 77 2.1 N 32 37 17 20 1025.6 1025.6 0.0
22/02:30am 14.8 9.1 11.2 79 1.9 N 32 35 17 19 1026.0 1026.0 0.0
22/02:00am 15.3 10.0 11.3 77 2.1 N 30 37 16 20 1026.6 1026.6 0.0
22/01:30am 15.1 9.4 11.3 78 2.0 N 32 39 17 21 1026.9 1026.9 0.0
22/01:00am 15.2 9.6 11.4 78 2.0 N 32 35 17 19 1027.4 1027.4 0.0
22/12:30am 15.5 9.7 11.5 77 2.2 N 33 39 18 21 1027.8 1027.8 0.0
22/12:00am 15.7 9.6 11.7 77 2.2 N 35 43 19 23 1028.2 1028.2 0.0
 
Date/Time
EDT
Temp
°C
App
Temp
°C
Dew
Point
Rel
Hum
%
Delta-T
°C
Wind Press
QNH
hPa
Press
MSL
hPa
Rain
since 9 am
mm
Dir
 
Spd
km/h
Gust
km/h
Spd
kts
Gust
kts
21/11:30pm 15.7 10.2 11.9 78 2.1 N 32 41 17 22 1028.5 1028.5 0.0
21/11:00pm 16.1 10.6 11.9 76 2.3 N 32 39 17 21 1028.8 1028.8 0.0
21/10:30pm 15.9 8.7 11.9 77 2.2 NNE 41 48 22 26 1028.6 1028.6 0.0
21/10:00pm 15.7 7.9 11.7 77 2.1 NNE 44 52 24 28 1028.8 1028.8 0.0
21/09:30pm 15.5 7.6 11.5 77 2.2 NNE 44 54 24 29 1028.9 1028.9 0.0
21/09:00pm 15.5 7.8 11.5 77 2.1 NNE 43 52 23 28 1029.1 1029.1 0.0
21/08:30pm 15.3 7.3 11.1 76 2.2 NNE 44 54 24 29 1029.0 1029.0 0.0
21/08:00pm 15.3 7.5 11.1 76 2.2 NNE 43 50 23 27 1029.0 1029.0 0.0
21/07:30pm 15.3 7.2 10.9 75 2.3 NNE 44 54 24 29 1028.7 1028.7 0.0
21/07:00pm 15.3 7.2 10.7 74 2.4 NNE 44 52 24 28 1028.8 1028.8 0.0
21/06:30pm 15.3 7.7 10.5 73 2.5 NNE 41 48 22 26 1028.7 1028.7 0.0
21/06:00pm 15.4 7.4 10.4 72 2.6 NNE 43 48 23 26 1028.8 1028.8 0.0
21/05:30pm 15.6 7.9 10.2 70 2.8 NNE 41 50 22 27 1028.9 1028.9 0.0
21/05:00pm 15.9 8.7 10.4 70 2.9 NNE 39 44 21 24 1029.1 1029.1 0.0
21/04:30pm 15.7 8.2 9.6 67 3.2 NNE 39 46 21 25 1029.0 1029.0 0.0
21/04:00pm 16.3 8.5 9.9 66 3.3 NNE 41 46 22 25 1029.3 1029.3 0.0
21/03:30pm 16.7 9.6 9.4 62 3.8 NNE 37 44 20 24 1029.6 1029.6 0.0
21/03:00pm 17.3 10.2 9.5 60 4.1 NNE 37 43 20 23 1030.1 1030.1 0.0
21/02:30pm 17.5 10.7 9.4 59 4.2 NNE 35 43 19 23 1030.5 1030.5 0.0
21/02:00pm 17.7 10.9 9.3 58 4.4 NNE 35 41 19 22 1030.9 1030.9 0.0
21/01:30pm 17.2 9.6 8.9 58 4.3 NNE 39 43 21 23 1031.3 1031.3 0.0
21/01:00pm 17.5 10.7 9.4 59 4.2 NNE 35 43 19 23 1031.6 1031.6 0.0
21/12:30pm 17.2 10.3 8.9 58 4.3 NNE 35 39 19 21 1032.1 1032.1 0.0
21/12:00pm 16.2 9.2 8.4 60 3.9 NE 35 39 19 21 1032.3 1032.3 0.0
21/11:30am 16.5 9.8 8.2 58 4.2 NNE 33 39 18 21 1032.7 1032.7 0.0
21/11:00am 16.3 9.3 8.3 59 4.0 NNE 35 39 19 21 1032.8 1032.8 0.0
21/10:30am 16.4 10.0 8.6 60 4.0 NNE 32 37 17 20 1033.0 1033.0 0.0
21/10:00am 16.3 9.8 8.3 59 4.0 NNE 32 35 17 19 1033.0 1033.0 0.0
21/09:30am 15.6 9.4 7.9 60 3.9 NE 30 35 16 19 1033.1 1033.1 0.0
21/09:00am 15.4 8.9 8.2 62 3.6 NE 32 37 17 20 1032.8 1032.8 0.0
21/08:30am 15.0 8.3 7.5 61 3.7 NE 32 37 17 20 1032.6 1032.6 0.0
21/08:00am 14.8 8.9 7.6 62 3.5 NE 28 33 15 18 1032.5 1032.5 0.0
21/07:30am 14.5 8.3 6.3 58 3.9 NE 28 35 15 19 1032.3 1032.3 0.0
21/07:00am 14.5 8.8 6.6 59 3.8 NE 26 32 14 17 1032.1 1032.1 0.0
21/06:30am 13.9 9.2 5.3 56 4.0 NE 19 30 10 16 1032.2 1032.2 0.0
21/06:00am 14.1 9.7 6.5 60 3.6 NNE 19 24 10 13 1032.0 1032.0 0.0
21/05:30am 14.2 9.3 6.8 61 3.6 NNE 22 28 12 15 1031.7 1031.7 0.0
21/05:00am 14.1 10.1 6.5 60 3.6 NNE 17 20 9 11 1031.9 1031.9 0.0
21/04:30am 14.3 9.9 6.4 59 3.8 NNE 19 24 10 13 1031.8 1031.8 0.0
21/04:00am 14.3 10.1 5.9 57 4.0 NE 17 22 9 12 1031.8 1031.8 0.0
21/03:30am 14.2 9.9 7.0 62 3.5 NE 19 22 10 12 1032.1 1032.1 0.0
21/03:00am 14.1 9.5 6.7 61 3.5 ENE 20 26 11 14 1032.3 1032.3 0.0
21/02:30am 14.3 9.9 6.6 60 3.7 ENE 19 22 10 12 1032.7 1032.7 0.0
21/02:00am 14.3 9.9 6.6 60 3.7 ENE 19 26 10 14 1032.7 1032.7 0.0
21/01:30am 14.2 10.4 5.8 57 4.0 NE 15 20 8 11 1033.0 1033.0 0.0
21/01:00am 14.4 9.9 6.0 57 4.0 NE 19 24 10 13 1033.1 1033.1 0.0
21/12:30am 14.5 10.3 7.5 63 3.5 NE 19 22 10 12 1033.2 1033.2 0.0
21/12:00am 14.5 10.3 7.3 62 3.5 ENE 19 22 10 12 1033.5 1033.5 0.0
 
Date/Time
EDT
Temp
°C
App
Temp
°C
Dew
Point
Rel
Hum
%
Delta-T
°C
Wind Press
QNH
hPa
Press
MSL
hPa
Rain
since 9 am
mm
Dir
 
Spd
km/h
Gust
km/h
Spd
kts
Gust
kts
20/11:30pm 14.6 10.6 8.1 65 3.3 ENE 19 26 10 14 1033.4 1033.4 0.0
20/11:00pm 14.5 11.0 7.3 62 3.5 ENE 15 19 8 10 1033.6 1033.6 0.0
20/10:30pm 14.5 11.0 7.3 62 3.5 ENE 15 19 8 10 1033.6 1033.6 0.0
20/10:00pm 14.3 10.5 7.6 64 3.3 ENE 17 20 9 11 1033.7 1033.7 0.0
20/09:30pm 14.3 10.9 7.8 65 3.2 E 15 19 8 10 1033.6 1033.6 0.0
20/09:00pm 14.2 10.3 7.3 63 3.4 E 17 19 9 10 1033.5 1033.5 0.0
20/08:30pm 14.1 11.1 6.0 58 3.9 E 11 15 6 8 1033.3 1033.3 0.0
20/08:00pm 14.2 10.9 6.3 59 3.8 E 13 17 7 9 1033.0 1033.0 0.0
20/07:30pm 14.3 11.0 6.6 60 3.7 ESE 13 17 7 9 1032.8 1032.8 0.0
20/07:00pm 14.4 11.2 6.7 60 3.7 ESE 13 19 7 10 1032.7 1032.7 0.0
20/06:30pm 14.5 10.8 6.3 58 3.9 ESE 15 19 8 10 1032.5 1032.5 0.0
20/06:00pm 14.8 11.6 6.9 59 3.8 ESE 13 19 7 10 1032.4 1032.4 0.0
20/05:30pm 15.0 11.4 6.8 58 4.0 ESE 15 19 8 10 1032.3 1032.3 0.0
20/05:00pm 15.4 11.9 7.4 59 3.9 ESE 15 19 8 10 1032.0 1032.0 0.0
20/04:30pm 15.5 12.0 7.3 58 4.1 ESE 15 20 8 11 1031.8 1031.8 0.0
20/04:00pm 16.6 12.8 7.5 55 4.5 SE 17 22 9 12 1031.6 1031.6 0.0
20/03:30pm 17.3 13.8 8.7 57 4.4 SSE 17 20 9 11 1031.7 1031.7 0.0

Other Formats:

Comma delimited format used in spreadsheet applications
http://www.bom.gov.au/fwo/IDN60801/IDN60801.94934.axf

JavaScript Object Notation format (JSON) in row-major order
http://www.bom.gov.au/fwo/IDN60801/IDN60801.94934.json